sensor_id;sensor_type;location;lat;lon;timestamp;P1;durP1;ratioP1;P2;durP2;ratioP2
15693;SDS011;7947;48.834;9.132;2022-12-05T00:00:05;12.53;;;6.33;;
15693;SDS011;7947;48.834;9.132;2022-12-05T00:03:15;11.17;;;6.20;;
15693;SDS011;7947;48.834;9.132;2022-12-05T00:06:23;15.23;;;6.93;;
15693;SDS011;7947;48.834;9.132;2022-12-05T00:09:30;9.87;;;5.67;;
15693;SDS011;7947;48.834;9.132;2022-12-05T00:12:39;9.93;;;5.87;;
15693;SDS011;7947;48.834;9.132;2022-12-05T00:15:45;13.17;;;6.90;;
15693;SDS011;7947;48.834;9.132;2022-12-05T00:18:53;13.90;;;6.07;;
15693;SDS011;7947;48.834;9.132;2022-12-05T00:22:00;15.33;;;7.10;;
15693;SDS011;7947;48.834;9.132;2022-12-05T00:25:07;13.47;;;7.27;;
15693;SDS011;7947;48.834;9.132;2022-12-05T00:28:14;13.63;;;6.50;;
15693;SDS011;7947;48.834;9.132;2022-12-05T00:31:23;11.47;;;6.10;;
15693;SDS011;7947;48.834;9.132;2022-12-05T00:34:33;12.90;;;6.80;;
15693;SDS011;7947;48.834;9.132;2022-12-05T00:37:43;15.13;;;7.53;;
15693;SDS011;7947;48.834;9.132;2022-12-05T00:40:51;14.83;;;6.60;;
15693;SDS011;7947;48.834;9.132;2022-12-05T00:44:01;12.30;;;6.47;;
15693;SDS011;7947;48.834;9.132;2022-12-05T00:47:07;13.57;;;6.63;;
15693;SDS011;7947;48.834;9.132;2022-12-05T00:50:17;13.83;;;6.43;;
15693;SDS011;7947;48.834;9.132;2022-12-05T00:53:25;14.57;;;6.97;;
15693;SDS011;7947;48.834;9.132;2022-12-05T00:56:36;13.00;;;6.23;;
15693;SDS011;7947;48.834;9.132;2022-12-05T00:59:42;21.57;;;7.07;;
15693;SDS011;7947;48.834;9.132;2022-12-05T01:02:57;14.73;;;7.03;;
15693;SDS011;7947;48.834;9.132;2022-12-05T01:06:03;11.93;;;6.77;;
15693;SDS011;7947;48.834;9.132;2022-12-05T01:09:11;15.83;;;7.00;;
15693;SDS011;7947;48.834;9.132;2022-12-05T01:12:18;14.53;;;7.60;;
15693;SDS011;7947;48.834;9.132;2022-12-05T01:15:35;12.40;;;6.33;;
15693;SDS011;7947;48.834;9.132;2022-12-05T01:18:49;12.33;;;5.77;;
15693;SDS011;7947;48.834;9.132;2022-12-05T01:25:46;15.17;;;6.07;;
15693;SDS011;7947;48.834;9.132;2022-12-05T01:28:55;14.53;;;7.37;;
15693;SDS011;7947;48.834;9.132;2022-12-05T01:32:02;16.20;;;7.00;;
15693;SDS011;7947;48.834;9.132;2022-12-05T01:35:11;14.77;;;6.40;;
15693;SDS011;7947;48.834;9.132;2022-12-05T01:38:20;14.80;;;7.47;;
15693;SDS011;7947;48.834;9.132;2022-12-05T01:41:28;13.47;;;7.00;;
15693;SDS011;7947;48.834;9.132;2022-12-05T01:48:09;14.17;;;6.90;;
15693;SDS011;7947;48.834;9.132;2022-12-05T01:51:19;11.17;;;6.43;;
15693;SDS011;7947;48.834;9.132;2022-12-05T01:54:29;13.93;;;7.20;;
15693;SDS011;7947;48.834;9.132;2022-12-05T01:57:36;13.70;;;6.70;;
15693;SDS011;7947;48.834;9.132;2022-12-05T02:00:43;12.20;;;6.07;;
15693;SDS011;7947;48.834;9.132;2022-12-05T02:03:50;14.77;;;6.70;;
15693;SDS011;7947;48.834;9.132;2022-12-05T02:07:02;15.50;;;6.23;;
15693;SDS011;7947;48.834;9.132;2022-12-05T02:10:09;11.60;;;6.50;;
15693;SDS011;7947;48.834;9.132;2022-12-05T02:13:23;12.60;;;6.77;;
15693;SDS011;7947;48.834;9.132;2022-12-05T02:16:55;11.87;;;6.27;;
15693;SDS011;7947;48.834;9.132;2022-12-05T02:20:23;9.60;;;6.20;;
15693;SDS011;7947;48.834;9.132;2022-12-05T02:27:51;11.27;;;5.63;;
15693;SDS011;7947;48.834;9.132;2022-12-05T02:31:15;13.23;;;5.97;;
15693;SDS011;7947;48.834;9.132;2022-12-05T02:34:24;10.67;;;5.43;;
15693;SDS011;7947;48.834;9.132;2022-12-05T02:37:39;13.57;;;5.80;;
15693;SDS011;7947;48.834;9.132;2022-12-05T02:40:58;11.07;;;5.43;;
15693;SDS011;7947;48.834;9.132;2022-12-05T02:44:12;11.17;;;5.93;;
15693;SDS011;7947;48.834;9.132;2022-12-05T02:47:24;11.60;;;5.47;;
15693;SDS011;7947;48.834;9.132;2022-12-05T02:50:36;9.07;;;5.27;;
15693;SDS011;7947;48.834;9.132;2022-12-05T02:53:46;10.83;;;5.03;;
15693;SDS011;7947;48.834;9.132;2022-12-05T02:56:58;9.40;;;5.20;;
15693;SDS011;7947;48.834;9.132;2022-12-05T03:00:06;8.50;;;4.37;;
15693;SDS011;7947;48.834;9.132;2022-12-05T03:03:16;9.53;;;4.90;;
15693;SDS011;7947;48.834;9.132;2022-12-05T03:06:26;12.57;;;5.57;;
15693;SDS011;7947;48.834;9.132;2022-12-05T03:09:35;10.37;;;5.43;;
15693;SDS011;7947;48.834;9.132;2022-12-05T03:12:48;10.13;;;5.47;;
15693;SDS011;7947;48.834;9.132;2022-12-05T03:15:59;12.30;;;6.27;;
15693;SDS011;7947;48.834;9.132;2022-12-05T03:19:13;10.03;;;5.10;;
15693;SDS011;7947;48.834;9.132;2022-12-05T03:22:23;10.97;;;5.50;;
15693;SDS011;7947;48.834;9.132;2022-12-05T03:25:38;9.00;;;5.27;;
15693;SDS011;7947;48.834;9.132;2022-12-05T03:28:53;9.80;;;5.60;;
15693;SDS011;7947;48.834;9.132;2022-12-05T03:32:05;7.37;;;4.47;;
15693;SDS011;7947;48.834;9.132;2022-12-05T03:35:17;13.60;;;6.10;;
15693;SDS011;7947;48.834;9.132;2022-12-05T03:38:30;8.47;;;4.67;;
15693;SDS011;7947;48.834;9.132;2022-12-05T03:41:40;8.37;;;4.50;;
15693;SDS011;7947;48.834;9.132;2022-12-05T03:44:53;7.70;;;4.20;;
15693;SDS011;7947;48.834;9.132;2022-12-05T03:48:06;8.97;;;4.67;;
15693;SDS011;7947;48.834;9.132;2022-12-05T03:51:21;10.03;;;4.90;;
15693;SDS011;7947;48.834;9.132;2022-12-05T03:54:33;8.50;;;5.33;;
15693;SDS011;7947;48.834;9.132;2022-12-05T03:57:42;8.50;;;5.07;;
15693;SDS011;7947;48.834;9.132;2022-12-05T04:00:56;9.53;;;5.37;;
15693;SDS011;7947;48.834;9.132;2022-12-05T04:04:07;11.37;;;5.80;;
15693;SDS011;7947;48.834;9.132;2022-12-05T04:07:19;9.03;;;5.03;;
15693;SDS011;7947;48.834;9.132;2022-12-05T04:10:28;12.47;;;5.70;;
15693;SDS011;7947;48.834;9.132;2022-12-05T04:13:51;13.30;;;5.83;;
15693;SDS011;7947;48.834;9.132;2022-12-05T04:17:00;10.20;;;5.13;;
15693;SDS011;7947;48.834;9.132;2022-12-05T04:20:11;11.77;;;5.23;;
15693;SDS011;7947;48.834;9.132;2022-12-05T04:23:39;9.57;;;5.00;;
15693;SDS011;7947;48.834;9.132;2022-12-05T04:27:12;12.10;;;5.53;;
15693;SDS011;7947;48.834;9.132;2022-12-05T04:30:27;9.80;;;4.20;;
15693;SDS011;7947;48.834;9.132;2022-12-05T04:33:39;9.13;;;5.13;;
15693;SDS011;7947;48.834;9.132;2022-12-05T04:36:49;8.83;;;5.00;;
15693;SDS011;7947;48.834;9.132;2022-12-05T04:40:01;8.53;;;4.67;;
15693;SDS011;7947;48.834;9.132;2022-12-05T04:43:13;8.67;;;4.97;;
15693;SDS011;7947;48.834;9.132;2022-12-05T04:46:23;8.90;;;5.57;;
15693;SDS011;7947;48.834;9.132;2022-12-05T04:49:30;9.07;;;4.97;;
15693;SDS011;7947;48.834;9.132;2022-12-05T04:52:39;10.40;;;5.23;;
15693;SDS011;7947;48.834;9.132;2022-12-05T04:55:56;11.87;;;6.43;;
15693;SDS011;7947;48.834;9.132;2022-12-05T04:59:11;10.37;;;5.13;;
15693;SDS011;7947;48.834;9.132;2022-12-05T05:02:25;11.27;;;5.43;;
15693;SDS011;7947;48.834;9.132;2022-12-05T05:05:43;9.60;;;5.07;;
15693;SDS011;7947;48.834;9.132;2022-12-05T05:08:59;9.93;;;4.90;;
15693;SDS011;7947;48.834;9.132;2022-12-05T05:12:06;8.97;;;4.90;;
15693;SDS011;7947;48.834;9.132;2022-12-05T05:15:19;10.87;;;5.27;;
15693;SDS011;7947;48.834;9.132;2022-12-05T05:18:25;10.47;;;5.93;;
15693;SDS011;7947;48.834;9.132;2022-12-05T05:21:32;10.00;;;5.20;;
15693;SDS011;7947;48.834;9.132;2022-12-05T05:24:40;10.03;;;4.93;;
15693;SDS011;7947;48.834;9.132;2022-12-05T05:27:49;12.90;;;6.00;;
15693;SDS011;7947;48.834;9.132;2022-12-05T05:31:00;8.70;;;4.80;;
15693;SDS011;7947;48.834;9.132;2022-12-05T05:34:07;9.40;;;5.50;;
15693;SDS011;7947;48.834;9.132;2022-12-05T05:37:17;10.70;;;5.53;;
15693;SDS011;7947;48.834;9.132;2022-12-05T05:40:23;10.97;;;5.03;;
15693;SDS011;7947;48.834;9.132;2022-12-05T05:43:32;8.47;;;5.77;;
15693;SDS011;7947;48.834;9.132;2022-12-05T05:46:41;8.87;;;5.27;;
15693;SDS011;7947;48.834;9.132;2022-12-05T05:49:48;11.23;;;6.23;;
15693;SDS011;7947;48.834;9.132;2022-12-05T05:52:55;13.43;;;5.93;;
15693;SDS011;7947;48.834;9.132;2022-12-05T05:56:01;10.30;;;5.50;;
15693;SDS011;7947;48.834;9.132;2022-12-05T05:59:10;10.57;;;5.30;;
15693;SDS011;7947;48.834;9.132;2022-12-05T06:02:17;11.10;;;5.93;;
15693;SDS011;7947;48.834;9.132;2022-12-05T06:05:27;11.17;;;6.00;;
15693;SDS011;7947;48.834;9.132;2022-12-05T06:08:41;10.13;;;5.30;;
15693;SDS011;7947;48.834;9.132;2022-12-05T06:11:55;11.93;;;5.97;;
15693;SDS011;7947;48.834;9.132;2022-12-05T06:15:04;11.53;;;5.03;;
15693;SDS011;7947;48.834;9.132;2022-12-05T06:18:11;11.93;;;5.90;;
15693;SDS011;7947;48.834;9.132;2022-12-05T06:21:18;11.07;;;4.97;;
15693;SDS011;7947;48.834;9.132;2022-12-05T06:24:27;12.17;;;5.80;;
15693;SDS011;7947;48.834;9.132;2022-12-05T06:27:33;9.63;;;5.27;;
15693;SDS011;7947;48.834;9.132;2022-12-05T06:30:41;8.83;;;5.10;;
15693;SDS011;7947;48.834;9.132;2022-12-05T06:33:48;11.17;;;6.10;;
15693;SDS011;7947;48.834;9.132;2022-12-05T06:36:55;9.90;;;5.00;;
15693;SDS011;7947;48.834;9.132;2022-12-05T06:40:05;13.27;;;6.30;;
15693;SDS011;7947;48.834;9.132;2022-12-05T06:43:14;9.93;;;5.50;;
15693;SDS011;7947;48.834;9.132;2022-12-05T06:46:24;11.00;;;5.93;;
15693;SDS011;7947;48.834;9.132;2022-12-05T06:49:33;10.60;;;5.27;;
15693;SDS011;7947;48.834;9.132;2022-12-05T06:52:46;12.17;;;5.43;;
15693;SDS011;7947;48.834;9.132;2022-12-05T06:56:01;13.07;;;5.83;;
15693;SDS011;7947;48.834;9.132;2022-12-05T06:59:21;14.97;;;6.87;;
15693;SDS011;7947;48.834;9.132;2022-12-05T07:02:36;10.23;;;5.80;;
15693;SDS011;7947;48.834;9.132;2022-12-05T07:05:44;11.20;;;6.27;;
15693;SDS011;7947;48.834;9.132;2022-12-05T07:08:59;11.17;;;5.70;;
15693;SDS011;7947;48.834;9.132;2022-12-05T07:12:07;10.53;;;5.67;;
15693;SDS011;7947;48.834;9.132;2022-12-05T07:15:14;8.80;;;5.40;;
15693;SDS011;7947;48.834;9.132;2022-12-05T07:18:25;10.47;;;5.20;;
15693;SDS011;7947;48.834;9.132;2022-12-05T07:21:33;14.13;;;5.80;;
15693;SDS011;7947;48.834;9.132;2022-12-05T07:24:39;10.87;;;5.80;;
15693;SDS011;7947;48.834;9.132;2022-12-05T07:27:49;10.67;;;5.77;;
15693;SDS011;7947;48.834;9.132;2022-12-05T07:30:58;10.37;;;5.07;;
15693;SDS011;7947;48.834;9.132;2022-12-05T07:34:08;10.03;;;5.53;;
15693;SDS011;7947;48.834;9.132;2022-12-05T07:37:17;12.00;;;5.13;;
15693;SDS011;7947;48.834;9.132;2022-12-05T07:40:25;8.90;;;4.97;;
15693;SDS011;7947;48.834;9.132;2022-12-05T07:43:31;15.00;;;5.87;;
15693;SDS011;7947;48.834;9.132;2022-12-05T07:46:39;9.80;;;5.60;;
15693;SDS011;7947;48.834;9.132;2022-12-05T07:49:48;9.53;;;5.40;;
15693;SDS011;7947;48.834;9.132;2022-12-05T07:52:54;12.73;;;5.97;;
15693;SDS011;7947;48.834;9.132;2022-12-05T07:56:07;10.50;;;6.00;;
15693;SDS011;7947;48.834;9.132;2022-12-05T07:59:16;10.53;;;4.43;;
15693;SDS011;7947;48.834;9.132;2022-12-05T08:02:22;8.80;;;5.27;;
15693;SDS011;7947;48.834;9.132;2022-12-05T08:05:33;9.73;;;5.53;;
15693;SDS011;7947;48.834;9.132;2022-12-05T08:08:40;11.93;;;5.53;;
15693;SDS011;7947;48.834;9.132;2022-12-05T08:11:47;9.90;;;5.67;;
15693;SDS011;7947;48.834;9.132;2022-12-05T08:15:00;10.57;;;5.17;;
15693;SDS011;7947;48.834;9.132;2022-12-05T08:18:07;12.37;;;6.30;;
15693;SDS011;7947;48.834;9.132;2022-12-05T08:21:16;11.17;;;5.50;;
15693;SDS011;7947;48.834;9.132;2022-12-05T08:24:30;9.43;;;5.37;;
15693;SDS011;7947;48.834;9.132;2022-12-05T08:27:36;10.37;;;5.53;;
15693;SDS011;7947;48.834;9.132;2022-12-05T08:30:46;10.40;;;5.43;;
15693;SDS011;7947;48.834;9.132;2022-12-05T08:33:52;12.80;;;6.07;;
15693;SDS011;7947;48.834;9.132;2022-12-05T08:37:04;7.93;;;5.33;;
15693;SDS011;7947;48.834;9.132;2022-12-05T08:40:10;9.83;;;5.20;;
15693;SDS011;7947;48.834;9.132;2022-12-05T08:43:16;9.17;;;5.20;;
15693;SDS011;7947;48.834;9.132;2022-12-05T08:46:24;8.10;;;4.83;;
15693;SDS011;7947;48.834;9.132;2022-12-05T08:49:32;8.83;;;4.87;;
15693;SDS011;7947;48.834;9.132;2022-12-05T08:52:41;13.37;;;6.37;;
15693;SDS011;7947;48.834;9.132;2022-12-05T08:55:49;8.47;;;4.97;;
15693;SDS011;7947;48.834;9.132;2022-12-05T08:58:56;11.27;;;6.00;;
15693;SDS011;7947;48.834;9.132;2022-12-05T09:02:21;10.47;;;5.50;;
15693;SDS011;7947;48.834;9.132;2022-12-05T09:05:27;9.70;;;4.67;;
15693;SDS011;7947;48.834;9.132;2022-12-05T09:08:51;8.63;;;5.27;;
15693;SDS011;7947;48.834;9.132;2022-12-05T09:12:24;10.20;;;5.00;;
15693;SDS011;7947;48.834;9.132;2022-12-05T09:15:37;10.13;;;5.10;;
15693;SDS011;7947;48.834;9.132;2022-12-05T09:19:13;8.53;;;5.03;;
15693;SDS011;7947;48.834;9.132;2022-12-05T09:22:51;10.70;;;5.30;;
15693;SDS011;7947;48.834;9.132;2022-12-05T09:30:02;9.60;;;4.47;;
15693;SDS011;7947;48.834;9.132;2022-12-05T09:33:30;7.43;;;4.53;;
15693;SDS011;7947;48.834;9.132;2022-12-05T09:37:09;9.40;;;5.37;;
15693;SDS011;7947;48.834;9.132;2022-12-05T09:40:41;7.37;;;4.50;;
15693;SDS011;7947;48.834;9.132;2022-12-05T09:44:04;7.57;;;4.73;;
15693;SDS011;7947;48.834;9.132;2022-12-05T09:47:37;6.07;;;4.07;;
15693;SDS011;7947;48.834;9.132;2022-12-05T09:50:55;7.73;;;4.33;;
15693;SDS011;7947;48.834;9.132;2022-12-05T09:54:09;6.47;;;4.53;;
15693;SDS011;7947;48.834;9.132;2022-12-05T09:57:19;6.53;;;3.87;;
15693;SDS011;7947;48.834;9.132;2022-12-05T10:00:40;7.83;;;4.87;;
15693;SDS011;7947;48.834;9.132;2022-12-05T10:04:00;6.83;;;4.37;;
15693;SDS011;7947;48.834;9.132;2022-12-05T10:07:28;9.73;;;5.07;;
15693;SDS011;7947;48.834;9.132;2022-12-05T10:10:46;7.63;;;4.87;;
15693;SDS011;7947;48.834;9.132;2022-12-05T10:14:03;7.90;;;4.97;;
15693;SDS011;7947;48.834;9.132;2022-12-05T10:17:30;9.67;;;4.57;;
15693;SDS011;7947;48.834;9.132;2022-12-05T10:20:46;7.77;;;4.77;;
15693;SDS011;7947;48.834;9.132;2022-12-05T10:23:56;8.43;;;5.37;;
15693;SDS011;7947;48.834;9.132;2022-12-05T10:27:07;9.23;;;4.80;;
15693;SDS011;7947;48.834;9.132;2022-12-05T10:30:21;10.37;;;4.73;;
15693;SDS011;7947;48.834;9.132;2022-12-05T10:33:38;9.17;;;5.27;;
15693;SDS011;7947;48.834;9.132;2022-12-05T10:36:52;9.43;;;5.40;;
15693;SDS011;7947;48.834;9.132;2022-12-05T10:40:03;8.23;;;5.17;;
15693;SDS011;7947;48.834;9.132;2022-12-05T10:43:12;10.03;;;5.70;;
15693;SDS011;7947;48.834;9.132;2022-12-05T10:46:28;9.73;;;5.40;;
15693;SDS011;7947;48.834;9.132;2022-12-05T10:49:36;8.30;;;4.93;;
15693;SDS011;7947;48.834;9.132;2022-12-05T10:52:43;10.63;;;6.10;;
15693;SDS011;7947;48.834;9.132;2022-12-05T10:55:50;11.40;;;6.00;;
15693;SDS011;7947;48.834;9.132;2022-12-05T10:59:21;12.80;;;5.53;;
15693;SDS011;7947;48.834;9.132;2022-12-05T11:02:29;11.27;;;6.07;;
15693;SDS011;7947;48.834;9.132;2022-12-05T11:05:44;9.40;;;5.37;;
15693;SDS011;7947;48.834;9.132;2022-12-05T11:08:54;8.00;;;5.03;;
15693;SDS011;7947;48.834;9.132;2022-12-05T11:12:14;10.40;;;6.23;;
15693;SDS011;7947;48.834;9.132;2022-12-05T11:15:52;10.03;;;6.17;;
15693;SDS011;7947;48.834;9.132;2022-12-05T11:19:15;9.00;;;5.20;;
15693;SDS011;7947;48.834;9.132;2022-12-05T11:22:46;7.27;;;4.93;;
15693;SDS011;7947;48.834;9.132;2022-12-05T11:26:38;7.60;;;5.17;;
15693;SDS011;7947;48.834;9.132;2022-12-05T11:30:17;8.33;;;4.93;;
15693;SDS011;7947;48.834;9.132;2022-12-05T11:34:03;10.30;;;4.83;;
15693;SDS011;7947;48.834;9.132;2022-12-05T11:46:12;6.20;;;4.20;;
15693;SDS011;7947;48.834;9.132;2022-12-05T11:49:55;6.90;;;4.03;;
15693;SDS011;7947;48.834;9.132;2022-12-05T11:53:44;9.33;;;5.23;;
15693;SDS011;7947;48.834;9.132;2022-12-05T11:57:58;6.20;;;3.90;;
15693;SDS011;7947;48.834;9.132;2022-12-05T12:02:11;6.67;;;5.07;;
15693;SDS011;7947;48.834;9.132;2022-12-05T12:05:58;7.83;;;4.53;;
15693;SDS011;7947;48.834;9.132;2022-12-05T12:09:20;5.60;;;3.73;;
15693;SDS011;7947;48.834;9.132;2022-12-05T12:12:54;6.43;;;3.80;;
15693;SDS011;7947;48.834;9.132;2022-12-05T12:16:44;5.23;;;3.37;;
15693;SDS011;7947;48.834;9.132;2022-12-05T12:20:24;5.67;;;3.83;;
15693;SDS011;7947;48.834;9.132;2022-12-05T12:24:02;5.30;;;3.87;;
15693;SDS011;7947;48.834;9.132;2022-12-05T12:27:21;6.07;;;3.97;;
15693;SDS011;7947;48.834;9.132;2022-12-05T12:30:50;6.00;;;3.90;;
15693;SDS011;7947;48.834;9.132;2022-12-05T12:34:28;7.33;;;4.40;;
15693;SDS011;7947;48.834;9.132;2022-12-05T12:42:22;6.13;;;4.27;;
15693;SDS011;7947;48.834;9.132;2022-12-05T12:45:55;6.20;;;4.00;;
15693;SDS011;7947;48.834;9.132;2022-12-05T12:49:37;6.30;;;4.20;;
15693;SDS011;7947;48.834;9.132;2022-12-05T12:53:10;6.50;;;3.93;;
15693;SDS011;7947;48.834;9.132;2022-12-05T12:57:13;5.37;;;4.30;;
15693;SDS011;7947;48.834;9.132;2022-12-05T13:00:49;6.20;;;4.37;;
15693;SDS011;7947;48.834;9.132;2022-12-05T13:04:28;5.50;;;3.60;;
15693;SDS011;7947;48.834;9.132;2022-12-05T13:07:47;6.83;;;4.30;;
15693;SDS011;7947;48.834;9.132;2022-12-05T13:11:06;6.50;;;4.23;;
15693;SDS011;7947;48.834;9.132;2022-12-05T13:14:19;4.63;;;3.80;;
15693;SDS011;7947;48.834;9.132;2022-12-05T13:17:43;6.33;;;3.80;;
15693;SDS011;7947;48.834;9.132;2022-12-05T13:20:56;4.93;;;3.73;;
15693;SDS011;7947;48.834;9.132;2022-12-05T13:24:21;4.57;;;3.23;;
15693;SDS011;7947;48.834;9.132;2022-12-05T13:27:53;5.03;;;3.73;;
15693;SDS011;7947;48.834;9.132;2022-12-05T13:31:09;6.27;;;4.17;;
15693;SDS011;7947;48.834;9.132;2022-12-05T13:34:43;7.40;;;4.20;;
15693;SDS011;7947;48.834;9.132;2022-12-05T13:38:14;6.17;;;4.10;;
15693;SDS011;7947;48.834;9.132;2022-12-05T13:41:51;5.53;;;3.53;;
15693;SDS011;7947;48.834;9.132;2022-12-05T13:45:30;7.03;;;3.90;;
15693;SDS011;7947;48.834;9.132;2022-12-05T13:53:35;6.37;;;3.90;;
15693;SDS011;7947;48.834;9.132;2022-12-05T13:56:51;7.17;;;4.60;;
15693;SDS011;7947;48.834;9.132;2022-12-05T14:00:19;8.03;;;4.70;;
15693;SDS011;7947;48.834;9.132;2022-12-05T14:03:55;8.33;;;5.10;;
15693;SDS011;7947;48.834;9.132;2022-12-05T14:12:42;7.30;;;4.27;;
15693;SDS011;7947;48.834;9.132;2022-12-05T14:20:08;8.43;;;5.40;;
15693;SDS011;7947;48.834;9.132;2022-12-05T14:23:42;8.67;;;4.97;;
15693;SDS011;7947;48.834;9.132;2022-12-05T14:27:22;8.07;;;5.00;;
15693;SDS011;7947;48.834;9.132;2022-12-05T14:31:00;10.13;;;4.97;;
15693;SDS011;7947;48.834;9.132;2022-12-05T14:34:25;7.97;;;5.00;;
15693;SDS011;7947;48.834;9.132;2022-12-05T14:37:50;8.13;;;4.90;;
15693;SDS011;7947;48.834;9.132;2022-12-05T14:41:11;7.03;;;4.93;;
15693;SDS011;7947;48.834;9.132;2022-12-05T14:44:25;7.67;;;4.93;;
15693;SDS011;7947;48.834;9.132;2022-12-05T14:47:58;8.27;;;5.13;;
15693;SDS011;7947;48.834;9.132;2022-12-05T14:55:02;11.13;;;5.93;;
15693;SDS011;7947;48.834;9.132;2022-12-05T14:58:18;9.33;;;5.57;;
15693;SDS011;7947;48.834;9.132;2022-12-05T15:01:46;8.47;;;5.37;;
15693;SDS011;7947;48.834;9.132;2022-12-05T15:05:17;11.93;;;6.17;;
15693;SDS011;7947;48.834;9.132;2022-12-05T15:08:49;9.90;;;6.30;;
15693;SDS011;7947;48.834;9.132;2022-12-05T15:12:31;10.00;;;5.70;;
15693;SDS011;7947;48.834;9.132;2022-12-05T15:16:03;11.47;;;6.83;;
15693;SDS011;7947;48.834;9.132;2022-12-05T15:19:32;9.17;;;5.63;;
15693;SDS011;7947;48.834;9.132;2022-12-05T15:22:58;8.67;;;5.97;;
15693;SDS011;7947;48.834;9.132;2022-12-05T15:26:21;8.10;;;6.20;;
15693;SDS011;7947;48.834;9.132;2022-12-05T15:29:51;10.47;;;6.50;;
15693;SDS011;7947;48.834;9.132;2022-12-05T15:33:03;9.57;;;5.80;;
15693;SDS011;7947;48.834;9.132;2022-12-05T15:36:25;9.40;;;5.47;;
15693;SDS011;7947;48.834;9.132;2022-12-05T15:39:53;9.37;;;5.23;;
15693;SDS011;7947;48.834;9.132;2022-12-05T15:43:24;13.30;;;6.47;;
15693;SDS011;7947;48.834;9.132;2022-12-05T15:46:40;8.97;;;5.77;;
15693;SDS011;7947;48.834;9.132;2022-12-05T15:49:47;9.40;;;6.13;;
15693;SDS011;7947;48.834;9.132;2022-12-05T15:53:03;10.23;;;5.50;;
15693;SDS011;7947;48.834;9.132;2022-12-05T15:56:28;9.33;;;5.30;;
15693;SDS011;7947;48.834;9.132;2022-12-05T15:59:51;8.77;;;5.60;;
15693;SDS011;7947;48.834;9.132;2022-12-05T16:03:35;9.60;;;5.70;;
15693;SDS011;7947;48.834;9.132;2022-12-05T16:07:05;7.60;;;4.90;;
15693;SDS011;7947;48.834;9.132;2022-12-05T16:10:39;9.37;;;4.73;;
15693;SDS011;7947;48.834;9.132;2022-12-05T16:14:19;7.40;;;4.77;;
15693;SDS011;7947;48.834;9.132;2022-12-05T16:18:18;7.47;;;5.60;;
15693;SDS011;7947;48.834;9.132;2022-12-05T16:21:35;12.93;;;5.60;;
15693;SDS011;7947;48.834;9.132;2022-12-05T16:25:27;10.00;;;5.20;;
15693;SDS011;7947;48.834;9.132;2022-12-05T16:29:06;8.63;;;5.13;;
15693;SDS011;7947;48.834;9.132;2022-12-05T16:32:59;7.23;;;5.23;;
15693;SDS011;7947;48.834;9.132;2022-12-05T16:36:46;8.13;;;5.10;;
15693;SDS011;7947;48.834;9.132;2022-12-05T16:40:36;9.13;;;5.67;;
15693;SDS011;7947;48.834;9.132;2022-12-05T16:48:22;9.63;;;5.50;;
15693;SDS011;7947;48.834;9.132;2022-12-05T16:52:10;8.23;;;5.00;;
15693;SDS011;7947;48.834;9.132;2022-12-05T16:55:21;8.70;;;5.47;;
15693;SDS011;7947;48.834;9.132;2022-12-05T16:59:05;8.77;;;5.03;;
15693;SDS011;7947;48.834;9.132;2022-12-05T17:02:33;8.07;;;5.23;;
15693;SDS011;7947;48.834;9.132;2022-12-05T17:05:48;8.47;;;5.53;;
15693;SDS011;7947;48.834;9.132;2022-12-05T17:09:02;8.50;;;5.27;;
15693;SDS011;7947;48.834;9.132;2022-12-05T17:12:14;6.43;;;4.77;;
15693;SDS011;7947;48.834;9.132;2022-12-05T17:15:38;7.57;;;5.03;;
15693;SDS011;7947;48.834;9.132;2022-12-05T17:18:52;9.73;;;5.73;;
15693;SDS011;7947;48.834;9.132;2022-12-05T17:22:11;7.67;;;4.53;;
15693;SDS011;7947;48.834;9.132;2022-12-05T17:25:46;10.63;;;6.10;;
15693;SDS011;7947;48.834;9.132;2022-12-05T17:29:01;9.53;;;6.03;;
15693;SDS011;7947;48.834;9.132;2022-12-05T17:32:15;8.53;;;5.37;;
15693;SDS011;7947;48.834;9.132;2022-12-05T17:35:49;7.47;;;4.53;;
15693;SDS011;7947;48.834;9.132;2022-12-05T17:39:05;10.07;;;6.07;;
15693;SDS011;7947;48.834;9.132;2022-12-05T17:42:45;7.87;;;5.00;;
15693;SDS011;7947;48.834;9.132;2022-12-05T17:46:09;9.97;;;5.70;;
15693;SDS011;7947;48.834;9.132;2022-12-05T17:49:30;5.67;;;3.77;;
15693;SDS011;7947;48.834;9.132;2022-12-05T17:53:02;7.20;;;5.07;;
15693;SDS011;7947;48.834;9.132;2022-12-05T17:56:32;7.17;;;4.53;;
15693;SDS011;7947;48.834;9.132;2022-12-05T17:59:56;7.87;;;5.20;;
15693;SDS011;7947;48.834;9.132;2022-12-05T18:03:25;7.60;;;5.07;;
15693;SDS011;7947;48.834;9.132;2022-12-05T18:06:54;9.73;;;4.80;;
15693;SDS011;7947;48.834;9.132;2022-12-05T18:10:22;6.40;;;4.57;;
15693;SDS011;7947;48.834;9.132;2022-12-05T18:13:49;5.87;;;4.30;;
15693;SDS011;7947;48.834;9.132;2022-12-05T18:17:24;6.37;;;4.30;;
15693;SDS011;7947;48.834;9.132;2022-12-05T18:21:08;5.63;;;4.10;;
15693;SDS011;7947;48.834;9.132;2022-12-05T18:24:42;7.40;;;4.50;;
15693;SDS011;7947;48.834;9.132;2022-12-05T18:28:12;6.47;;;4.03;;
15693;SDS011;7947;48.834;9.132;2022-12-05T18:31:37;6.90;;;4.43;;
15693;SDS011;7947;48.834;9.132;2022-12-05T18:35:12;8.20;;;4.60;;
15693;SDS011;7947;48.834;9.132;2022-12-05T18:38:36;5.63;;;4.27;;
15693;SDS011;7947;48.834;9.132;2022-12-05T18:46:45;6.67;;;4.67;;
15693;SDS011;7947;48.834;9.132;2022-12-05T18:50:10;7.30;;;4.80;;
15693;SDS011;7947;48.834;9.132;2022-12-05T18:54:09;9.17;;;5.00;;
15693;SDS011;7947;48.834;9.132;2022-12-05T18:57:34;25.97;;;11.43;;
15693;SDS011;7947;48.834;9.132;2022-12-05T19:00:48;19.10;;;9.17;;
15693;SDS011;7947;48.834;9.132;2022-12-05T19:08:41;9.57;;;5.90;;
15693;SDS011;7947;48.834;9.132;2022-12-05T19:11:53;13.43;;;6.50;;
15693;SDS011;7947;48.834;9.132;2022-12-05T19:15:05;7.40;;;5.07;;
15693;SDS011;7947;48.834;9.132;2022-12-05T19:18:53;8.33;;;4.93;;
15693;SDS011;7947;48.834;9.132;2022-12-05T19:22:27;9.27;;;5.60;;
15693;SDS011;7947;48.834;9.132;2022-12-05T19:25:38;7.13;;;5.60;;
15693;SDS011;7947;48.834;9.132;2022-12-05T19:29:01;8.73;;;5.97;;
15693;SDS011;7947;48.834;9.132;2022-12-05T19:32:16;11.33;;;6.70;;
15693;SDS011;7947;48.834;9.132;2022-12-05T19:35:34;9.30;;;5.10;;
15693;SDS011;7947;48.834;9.132;2022-12-05T19:39:06;9.67;;;5.27;;
15693;SDS011;7947;48.834;9.132;2022-12-05T19:42:16;9.67;;;5.20;;
15693;SDS011;7947;48.834;9.132;2022-12-05T19:45:36;9.73;;;5.77;;
15693;SDS011;7947;48.834;9.132;2022-12-05T19:48:43;12.23;;;6.67;;
15693;SDS011;7947;48.834;9.132;2022-12-05T19:51:50;12.40;;;6.00;;
15693;SDS011;7947;48.834;9.132;2022-12-05T19:54:57;8.63;;;5.70;;
15693;SDS011;7947;48.834;9.132;2022-12-05T19:58:04;9.60;;;5.57;;
15693;SDS011;7947;48.834;9.132;2022-12-05T20:01:11;9.90;;;5.90;;
15693;SDS011;7947;48.834;9.132;2022-12-05T20:04:22;11.10;;;5.23;;
15693;SDS011;7947;48.834;9.132;2022-12-05T20:07:29;7.83;;;5.57;;
15693;SDS011;7947;48.834;9.132;2022-12-05T20:10:41;8.40;;;4.70;;
15693;SDS011;7947;48.834;9.132;2022-12-05T20:13:47;9.43;;;5.57;;
15693;SDS011;7947;48.834;9.132;2022-12-05T20:16:53;10.77;;;5.87;;
15693;SDS011;7947;48.834;9.132;2022-12-05T20:20:08;8.30;;;5.17;;
15693;SDS011;7947;48.834;9.132;2022-12-05T20:23:14;10.47;;;6.20;;
15693;SDS011;7947;48.834;9.132;2022-12-05T20:26:24;8.67;;;5.77;;
15693;SDS011;7947;48.834;9.132;2022-12-05T20:29:31;9.47;;;5.50;;
15693;SDS011;7947;48.834;9.132;2022-12-05T20:32:43;7.00;;;5.60;;
15693;SDS011;7947;48.834;9.132;2022-12-05T20:35:50;8.43;;;5.27;;
15693;SDS011;7947;48.834;9.132;2022-12-05T20:39:02;7.47;;;5.10;;
15693;SDS011;7947;48.834;9.132;2022-12-05T20:42:14;10.17;;;4.93;;
15693;SDS011;7947;48.834;9.132;2022-12-05T20:45:25;8.13;;;5.67;;
15693;SDS011;7947;48.834;9.132;2022-12-05T20:49:16;7.40;;;5.00;;
15693;SDS011;7947;48.834;9.132;2022-12-05T20:52:39;10.80;;;6.23;;
15693;SDS011;7947;48.834;9.132;2022-12-05T20:56:04;9.40;;;5.83;;
15693;SDS011;7947;48.834;9.132;2022-12-05T21:00:02;10.10;;;5.60;;
15693;SDS011;7947;48.834;9.132;2022-12-05T21:03:16;9.27;;;6.17;;
15693;SDS011;7947;48.834;9.132;2022-12-05T21:06:52;11.90;;;7.17;;